sensor_id;sensor_type;location;lat;lon;timestamp;P1;durP1;ratioP1;P2;durP2;ratioP2
16320;SDS011;8269;50.990;4.494;2022-10-23T00:00:35;20.40;;;9.50;;
16320;SDS011;8269;50.990;4.494;2022-10-23T00:03:02;17.27;;;9.40;;
16320;SDS011;8269;50.990;4.494;2022-10-23T00:05:28;16.25;;;9.25;;
16320;SDS011;8269;50.990;4.494;2022-10-23T00:07:55;21.50;;;10.53;;
16320;SDS011;8269;50.990;4.494;2022-10-23T00:10:23;26.20;;;9.80;;
16320;SDS011;8269;50.990;4.494;2022-10-23T00:12:50;16.40;;;9.53;;
16320;SDS011;8269;50.990;4.494;2022-10-23T00:15:17;19.23;;;9.63;;
16320;SDS011;8269;50.990;4.494;2022-10-23T00:17:45;18.38;;;9.65;;
16320;SDS011;8269;50.990;4.494;2022-10-23T00:20:11;18.67;;;10.10;;
16320;SDS011;8269;50.990;4.494;2022-10-23T00:22:37;15.40;;;9.13;;
16320;SDS011;8269;50.990;4.494;2022-10-23T00:25:04;16.38;;;9.20;;
16320;SDS011;8269;50.990;4.494;2022-10-23T00:27:31;17.30;;;9.03;;
16320;SDS011;8269;50.990;4.494;2022-10-23T00:29:57;17.13;;;9.13;;
16320;SDS011;8269;50.990;4.494;2022-10-23T00:32:22;19.27;;;9.33;;
16320;SDS011;8269;50.990;4.494;2022-10-23T00:34:48;17.60;;;9.55;;
16320;SDS011;8269;50.990;4.494;2022-10-23T00:37:14;16.92;;;9.23;;
16320;SDS011;8269;50.990;4.494;2022-10-23T00:39:39;17.80;;;8.40;;
16320;SDS011;8269;50.990;4.494;2022-10-23T00:42:05;16.10;;;8.73;;
16320;SDS011;8269;50.990;4.494;2022-10-23T00:46:57;20.35;;;9.70;;
16320;SDS011;8269;50.990;4.494;2022-10-23T00:49:23;16.67;;;9.00;;
16320;SDS011;8269;50.990;4.494;2022-10-23T00:51:54;15.57;;;8.60;;
16320;SDS011;8269;50.990;4.494;2022-10-23T00:54:24;14.37;;;8.80;;
16320;SDS011;8269;50.990;4.494;2022-10-23T00:56:54;13.95;;;8.95;;
16320;SDS011;8269;50.990;4.494;2022-10-23T00:59:22;14.90;;;9.80;;
16320;SDS011;8269;50.990;4.494;2022-10-23T01:01:48;18.48;;;9.32;;
16320;SDS011;8269;50.990;4.494;2022-10-23T01:04:13;16.52;;;9.60;;
16320;SDS011;8269;50.990;4.494;2022-10-23T01:07:22;18.30;;;9.77;;
16320;SDS011;8269;50.990;4.494;2022-10-23T01:10:04;17.50;;;9.73;;
16320;SDS011;8269;50.990;4.494;2022-10-23T01:12:45;15.53;;;8.83;;
16320;SDS011;8269;50.990;4.494;2022-10-23T01:15:19;15.03;;;9.17;;
16320;SDS011;8269;50.990;4.494;2022-10-23T01:20:38;14.30;;;8.30;;
16320;SDS011;8269;50.990;4.494;2022-10-23T01:32:38;15.00;;;8.60;;
16320;SDS011;8269;50.990;4.494;2022-10-23T01:34:49;14.27;;;8.57;;
16320;SDS011;8269;50.990;4.494;2022-10-23T01:37:24;13.10;;;8.07;;
16320;SDS011;8269;50.990;4.494;2022-10-23T01:39:54;14.70;;;7.90;;
16320;SDS011;8269;50.990;4.494;2022-10-23T01:42:27;12.47;;;7.60;;
16320;SDS011;8269;50.990;4.494;2022-10-23T01:45:08;13.07;;;7.63;;
16320;SDS011;8269;50.990;4.494;2022-10-23T01:47:45;12.47;;;7.40;;
16320;SDS011;8269;50.990;4.494;2022-10-23T01:50:13;15.07;;;7.73;;
16320;SDS011;8269;50.990;4.494;2022-10-23T01:52:41;14.93;;;7.07;;
16320;SDS011;8269;50.990;4.494;2022-10-23T01:55:07;11.20;;;6.93;;
16320;SDS011;8269;50.990;4.494;2022-10-23T01:57:35;15.27;;;6.60;;
16320;SDS011;8269;50.990;4.494;2022-10-23T02:00:07;12.07;;;6.57;;
16320;SDS011;8269;50.990;4.494;2022-10-23T02:02:36;11.27;;;6.30;;
16320;SDS011;8269;50.990;4.494;2022-10-23T02:05:08;10.65;;;6.25;;
16320;SDS011;8269;50.990;4.494;2022-10-23T02:07:46;14.13;;;6.30;;
16320;SDS011;8269;50.990;4.494;2022-10-23T02:10:12;15.50;;;6.87;;
16320;SDS011;8269;50.990;4.494;2022-10-23T02:12:42;12.50;;;6.27;;
16320;SDS011;8269;50.990;4.494;2022-10-23T02:15:22;11.47;;;6.23;;
16320;SDS011;8269;50.990;4.494;2022-10-23T02:23:07;14.73;;;6.63;;
16320;SDS011;8269;50.990;4.494;2022-10-23T02:25:53;13.43;;;6.47;;
16320;SDS011;8269;50.990;4.494;2022-10-23T02:28:25;11.47;;;6.03;;
16320;SDS011;8269;50.990;4.494;2022-10-23T02:30:54;13.40;;;5.73;;
16320;SDS011;8269;50.990;4.494;2022-10-23T02:33:22;11.57;;;5.97;;
16320;SDS011;8269;50.990;4.494;2022-10-23T02:35:51;11.60;;;5.73;;
16320;SDS011;8269;50.990;4.494;2022-10-23T02:41:08;13.63;;;5.93;;
16320;SDS011;8269;50.990;4.494;2022-10-23T02:44:04;11.20;;;6.00;;
16320;SDS011;8269;50.990;4.494;2022-10-23T02:49:45;13.10;;;5.40;;
16320;SDS011;8269;50.990;4.494;2022-10-23T02:52:34;11.10;;;5.40;;
16320;SDS011;8269;50.990;4.494;2022-10-23T03:00:52;8.80;;;5.27;;
16320;SDS011;8269;50.990;4.494;2022-10-23T03:03:31;12.80;;;5.53;;
16320;SDS011;8269;50.990;4.494;2022-10-23T03:06:00;12.18;;;5.53;;
16320;SDS011;8269;50.990;4.494;2022-10-23T03:08:25;12.30;;;5.07;;
16320;SDS011;8269;50.990;4.494;2022-10-23T03:10:51;10.53;;;5.00;;
16320;SDS011;8269;50.990;4.494;2022-10-23T03:13:18;13.63;;;5.53;;
16320;SDS011;8269;50.990;4.494;2022-10-23T03:15:43;15.60;;;5.55;;
16320;SDS011;8269;50.990;4.494;2022-10-23T03:18:09;13.00;;;5.43;;
16320;SDS011;8269;50.990;4.494;2022-10-23T03:20:35;11.38;;;5.25;;
16320;SDS011;8269;50.990;4.494;2022-10-23T03:23:00;15.10;;;5.07;;
16320;SDS011;8269;50.990;4.494;2022-10-23T03:25:26;9.97;;;5.23;;
16320;SDS011;8269;50.990;4.494;2022-10-23T03:27:52;11.37;;;5.43;;
16320;SDS011;8269;50.990;4.494;2022-10-23T03:30:18;11.87;;;5.33;;
16320;SDS011;8269;50.990;4.494;2022-10-23T03:32:43;10.30;;;5.40;;
16320;SDS011;8269;50.990;4.494;2022-10-23T03:35:09;13.13;;;5.50;;
16320;SDS011;8269;50.990;4.494;2022-10-23T03:37:35;13.27;;;5.10;;
16320;SDS011;8269;50.990;4.494;2022-10-23T03:40:00;9.88;;;5.55;;
16320;SDS011;8269;50.990;4.494;2022-10-23T03:42:26;8.88;;;5.00;;
16320;SDS011;8269;50.990;4.494;2022-10-23T03:44:52;12.97;;;4.90;;
16320;SDS011;8269;50.990;4.494;2022-10-23T03:47:17;13.30;;;5.17;;
16320;SDS011;8269;50.990;4.494;2022-10-23T03:49:43;9.77;;;4.65;;
16320;SDS011;8269;50.990;4.494;2022-10-23T03:52:08;8.53;;;4.20;;
16320;SDS011;8269;50.990;4.494;2022-10-23T03:54:34;15.52;;;5.15;;
16320;SDS011;8269;50.990;4.494;2022-10-23T03:57:00;12.37;;;5.20;;
16320;SDS011;8269;50.990;4.494;2022-10-23T03:59:26;12.97;;;5.10;;
16320;SDS011;8269;50.990;4.494;2022-10-23T04:01:52;10.13;;;4.75;;
16320;SDS011;8269;50.990;4.494;2022-10-23T04:04:18;8.50;;;4.50;;
16320;SDS011;8269;50.990;4.494;2022-10-23T04:06:43;11.30;;;4.93;;
16320;SDS011;8269;50.990;4.494;2022-10-23T04:09:09;9.13;;;4.80;;
16320;SDS011;8269;50.990;4.494;2022-10-23T04:11:34;10.63;;;5.07;;
16320;SDS011;8269;50.990;4.494;2022-10-23T04:14:00;9.50;;;5.17;;
16320;SDS011;8269;50.990;4.494;2022-10-23T04:16:26;13.00;;;5.27;;
16320;SDS011;8269;50.990;4.494;2022-10-23T04:18:51;10.00;;;5.13;;
16320;SDS011;8269;50.990;4.494;2022-10-23T04:21:17;8.23;;;4.43;;
16320;SDS011;8269;50.990;4.494;2022-10-23T04:23:43;13.60;;;5.40;;
16320;SDS011;8269;50.990;4.494;2022-10-23T04:26:09;11.40;;;4.90;;
16320;SDS011;8269;50.990;4.494;2022-10-23T04:28:34;11.03;;;4.70;;
16320;SDS011;8269;50.990;4.494;2022-10-23T04:31:00;9.90;;;4.80;;
16320;SDS011;8269;50.990;4.494;2022-10-23T04:33:26;10.40;;;4.77;;
16320;SDS011;8269;50.990;4.494;2022-10-23T04:35:51;8.57;;;4.80;;
16320;SDS011;8269;50.990;4.494;2022-10-23T04:38:17;10.43;;;5.03;;
16320;SDS011;8269;50.990;4.494;2022-10-23T04:40:43;11.07;;;4.70;;
16320;SDS011;8269;50.990;4.494;2022-10-23T04:43:08;10.77;;;4.93;;
16320;SDS011;8269;50.990;4.494;2022-10-23T04:45:34;12.30;;;5.47;;
16320;SDS011;8269;50.990;4.494;2022-10-23T04:48:00;11.03;;;4.63;;
16320;SDS011;8269;50.990;4.494;2022-10-23T04:50:25;9.37;;;4.83;;
16320;SDS011;8269;50.990;4.494;2022-10-23T04:52:54;9.33;;;4.33;;
16320;SDS011;8269;50.990;4.494;2022-10-23T04:55:21;8.03;;;4.83;;
16320;SDS011;8269;50.990;4.494;2022-10-23T04:57:49;10.77;;;4.97;;
16320;SDS011;8269;50.990;4.494;2022-10-23T05:00:15;11.40;;;4.90;;
16320;SDS011;8269;50.990;4.494;2022-10-23T05:02:41;9.80;;;4.57;;
16320;SDS011;8269;50.990;4.494;2022-10-23T05:05:07;9.20;;;4.57;;
16320;SDS011;8269;50.990;4.494;2022-10-23T05:07:33;12.07;;;4.57;;
16320;SDS011;8269;50.990;4.494;2022-10-23T05:09:59;8.03;;;4.50;;
16320;SDS011;8269;50.990;4.494;2022-10-23T05:12:25;9.30;;;4.63;;
16320;SDS011;8269;50.990;4.494;2022-10-23T05:14:51;11.67;;;4.70;;
16320;SDS011;8269;50.990;4.494;2022-10-23T05:17:51;9.50;;;4.23;;
16320;SDS011;8269;50.990;4.494;2022-10-23T05:20:12;9.88;;;4.70;;
16320;SDS011;8269;50.990;4.494;2022-10-23T05:22:42;8.53;;;4.50;;
16320;SDS011;8269;50.990;4.494;2022-10-23T05:25:10;13.68;;;4.75;;
16320;SDS011;8269;50.990;4.494;2022-10-23T05:27:36;9.43;;;4.70;;
16320;SDS011;8269;50.990;4.494;2022-10-23T05:30:03;7.83;;;4.00;;
16320;SDS011;8269;50.990;4.494;2022-10-23T05:32:29;8.70;;;4.67;;
16320;SDS011;8269;50.990;4.494;2022-10-23T05:34:56;8.13;;;4.33;;
16320;SDS011;8269;50.990;4.494;2022-10-23T05:37:23;11.57;;;4.30;;
16320;SDS011;8269;50.990;4.494;2022-10-23T05:39:49;10.73;;;4.00;;
16320;SDS011;8269;50.990;4.494;2022-10-23T05:42:15;9.30;;;4.30;;
16320;SDS011;8269;50.990;4.494;2022-10-23T05:44:41;11.73;;;4.30;;
16320;SDS011;8269;50.990;4.494;2022-10-23T05:47:06;8.83;;;4.97;;
16320;SDS011;8269;50.990;4.494;2022-10-23T05:49:33;8.27;;;4.33;;
16320;SDS011;8269;50.990;4.494;2022-10-23T05:51:58;9.27;;;4.33;;
16320;SDS011;8269;50.990;4.494;2022-10-23T05:54:24;11.30;;;4.50;;
16320;SDS011;8269;50.990;4.494;2022-10-23T05:56:50;10.17;;;4.70;;
16320;SDS011;8269;50.990;4.494;2022-10-23T05:59:16;9.63;;;4.77;;
16320;SDS011;8269;50.990;4.494;2022-10-23T06:01:41;9.63;;;5.07;;
16320;SDS011;8269;50.990;4.494;2022-10-23T06:04:07;8.97;;;4.90;;
16320;SDS011;8269;50.990;4.494;2022-10-23T06:06:33;12.03;;;5.07;;
16320;SDS011;8269;50.990;4.494;2022-10-23T06:09:00;11.87;;;5.40;;
16320;SDS011;8269;50.990;4.494;2022-10-23T06:11:26;10.80;;;4.87;;
16320;SDS011;8269;50.990;4.494;2022-10-23T06:13:52;9.03;;;4.87;;
16320;SDS011;8269;50.990;4.494;2022-10-23T06:16:19;10.97;;;5.00;;
16320;SDS011;8269;50.990;4.494;2022-10-23T06:18:46;10.30;;;4.23;;
16320;SDS011;8269;50.990;4.494;2022-10-23T06:21:12;8.40;;;4.67;;
16320;SDS011;8269;50.990;4.494;2022-10-23T06:23:39;11.97;;;5.20;;
16320;SDS011;8269;50.990;4.494;2022-10-23T06:26:08;9.30;;;5.03;;
16320;SDS011;8269;50.990;4.494;2022-10-23T06:28:35;9.07;;;4.53;;
16320;SDS011;8269;50.990;4.494;2022-10-23T06:31:04;11.63;;;5.23;;
16320;SDS011;8269;50.990;4.494;2022-10-23T06:33:30;10.47;;;5.00;;
16320;SDS011;8269;50.990;4.494;2022-10-23T06:35:56;7.77;;;4.30;;
16320;SDS011;8269;50.990;4.494;2022-10-23T06:38:22;9.27;;;4.97;;
16320;SDS011;8269;50.990;4.494;2022-10-23T06:40:54;12.17;;;5.00;;
16320;SDS011;8269;50.990;4.494;2022-10-23T06:43:20;7.67;;;4.67;;
16320;SDS011;8269;50.990;4.494;2022-10-23T06:45:46;10.30;;;4.20;;
16320;SDS011;8269;50.990;4.494;2022-10-23T06:48:12;9.90;;;4.50;;
16320;SDS011;8269;50.990;4.494;2022-10-23T06:50:38;9.70;;;4.40;;
16320;SDS011;8269;50.990;4.494;2022-10-23T06:53:05;8.30;;;4.70;;
16320;SDS011;8269;50.990;4.494;2022-10-23T06:55:31;8.50;;;4.30;;
16320;SDS011;8269;50.990;4.494;2022-10-23T06:57:57;12.10;;;5.37;;
16320;SDS011;8269;50.990;4.494;2022-10-23T07:00:23;8.97;;;4.50;;
16320;SDS011;8269;50.990;4.494;2022-10-23T07:02:49;9.37;;;4.40;;
16320;SDS011;8269;50.990;4.494;2022-10-23T07:05:16;10.90;;;4.47;;
16320;SDS011;8269;50.990;4.494;2022-10-23T07:07:42;8.33;;;4.30;;
16320;SDS011;8269;50.990;4.494;2022-10-23T07:10:08;7.20;;;4.13;;
16320;SDS011;8269;50.990;4.494;2022-10-23T07:12:34;7.93;;;3.92;;
16320;SDS011;8269;50.990;4.494;2022-10-23T07:14:59;10.50;;;4.57;;
16320;SDS011;8269;50.990;4.494;2022-10-23T07:17:25;10.37;;;4.33;;
16320;SDS011;8269;50.990;4.494;2022-10-23T07:19:52;9.57;;;4.40;;
16320;SDS011;8269;50.990;4.494;2022-10-23T07:22:17;12.93;;;4.03;;
16320;SDS011;8269;50.990;4.494;2022-10-23T07:24:43;9.57;;;4.00;;
16320;SDS011;8269;50.990;4.494;2022-10-23T07:27:09;11.20;;;4.30;;
16320;SDS011;8269;50.990;4.494;2022-10-23T07:29:34;7.80;;;3.40;;
16320;SDS011;8269;50.990;4.494;2022-10-23T07:32:00;7.20;;;3.40;;
16320;SDS011;8269;50.990;4.494;2022-10-23T07:34:26;6.53;;;4.00;;
16320;SDS011;8269;50.990;4.494;2022-10-23T07:36:52;8.20;;;3.50;;
16320;SDS011;8269;50.990;4.494;2022-10-23T07:39:20;9.77;;;4.40;;
16320;SDS011;8269;50.990;4.494;2022-10-23T07:41:46;8.68;;;3.78;;
16320;SDS011;8269;50.990;4.494;2022-10-23T07:44:12;12.37;;;3.73;;
16320;SDS011;8269;50.990;4.494;2022-10-23T07:46:38;8.13;;;3.65;;
16320;SDS011;8269;50.990;4.494;2022-10-23T07:49:03;8.30;;;4.90;;
16320;SDS011;8269;50.990;4.494;2022-10-23T07:51:29;7.93;;;3.50;;
16320;SDS011;8269;50.990;4.494;2022-10-23T07:53:55;11.10;;;5.13;;
16320;SDS011;8269;50.990;4.494;2022-10-23T07:56:24;6.50;;;3.42;;
16320;SDS011;8269;50.990;4.494;2022-10-23T07:58:54;7.68;;;3.17;;
16320;SDS011;8269;50.990;4.494;2022-10-23T08:01:33;5.88;;;3.20;;
16320;SDS011;8269;50.990;4.494;2022-10-23T08:04:01;6.30;;;3.30;;
16320;SDS011;8269;50.990;4.494;2022-10-23T08:06:26;6.32;;;2.97;;
16320;SDS011;8269;50.990;4.494;2022-10-23T08:08:52;7.50;;;3.30;;
16320;SDS011;8269;50.990;4.494;2022-10-23T08:11:19;6.80;;;3.08;;
16320;SDS011;8269;50.990;4.494;2022-10-23T08:13:50;11.57;;;3.20;;
16320;SDS011;8269;50.990;4.494;2022-10-23T08:16:17;8.75;;;3.53;;
16320;SDS011;8269;50.990;4.494;2022-10-23T08:18:42;8.40;;;3.40;;
16320;SDS011;8269;50.990;4.494;2022-10-23T08:21:09;6.93;;;3.10;;
16320;SDS011;8269;50.990;4.494;2022-10-23T08:23:35;5.60;;;3.10;;
16320;SDS011;8269;50.990;4.494;2022-10-23T08:26:02;8.85;;;3.10;;
16320;SDS011;8269;50.990;4.494;2022-10-23T08:28:30;6.55;;;3.03;;
16320;SDS011;8269;50.990;4.494;2022-10-23T08:30:56;7.25;;;2.90;;
16320;SDS011;8269;50.990;4.494;2022-10-23T08:33:22;7.80;;;3.40;;
16320;SDS011;8269;50.990;4.494;2022-10-23T08:35:48;5.50;;;2.97;;
16320;SDS011;8269;50.990;4.494;2022-10-23T08:38:15;6.90;;;2.90;;
16320;SDS011;8269;50.990;4.494;2022-10-23T08:40:45;6.18;;;2.90;;
16320;SDS011;8269;50.990;4.494;2022-10-23T08:43:16;6.28;;;3.05;;
16320;SDS011;8269;50.990;4.494;2022-10-23T08:46:00;7.53;;;2.90;;
16320;SDS011;8269;50.990;4.494;2022-10-23T08:48:41;7.00;;;3.55;;
16320;SDS011;8269;50.990;4.494;2022-10-23T08:53:51;7.60;;;3.17;;
16320;SDS011;8269;50.990;4.494;2022-10-23T08:56:23;7.82;;;3.20;;
16320;SDS011;8269;50.990;4.494;2022-10-23T08:58:57;6.43;;;3.03;;
16320;SDS011;8269;50.990;4.494;2022-10-23T09:02:01;8.52;;;3.20;;
16320;SDS011;8269;50.990;4.494;2022-10-23T09:04:31;7.30;;;2.95;;
16320;SDS011;8269;50.990;4.494;2022-10-23T09:07:00;5.47;;;2.95;;
16320;SDS011;8269;50.990;4.494;2022-10-23T09:12:18;8.20;;;3.47;;
16320;SDS011;8269;50.990;4.494;2022-10-23T09:17:30;8.98;;;3.65;;
16320;SDS011;8269;50.990;4.494;2022-10-23T09:22:46;6.10;;;3.55;;
16320;SDS011;8269;50.990;4.494;2022-10-23T09:25:18;8.18;;;3.20;;
16320;SDS011;8269;50.990;4.494;2022-10-23T09:27:55;7.65;;;3.20;;
16320;SDS011;8269;50.990;4.494;2022-10-23T09:30:33;9.77;;;3.58;;
16320;SDS011;8269;50.990;4.494;2022-10-23T09:33:11;10.43;;;3.15;;
16320;SDS011;8269;50.990;4.494;2022-10-23T09:35:38;7.00;;;3.20;;
16320;SDS011;8269;50.990;4.494;2022-10-23T09:41:01;7.40;;;3.10;;
16320;SDS011;8269;50.990;4.494;2022-10-23T09:43:42;9.30;;;3.40;;
16320;SDS011;8269;50.990;4.494;2022-10-23T09:46:08;6.65;;;3.78;;
16320;SDS011;8269;50.990;4.494;2022-10-23T09:48:34;7.85;;;3.13;;
16320;SDS011;8269;50.990;4.494;2022-10-23T09:51:01;5.32;;;2.92;;
16320;SDS011;8269;50.990;4.494;2022-10-23T09:55:58;6.57;;;2.67;;
16320;SDS011;8269;50.990;4.494;2022-10-23T09:58:36;6.00;;;2.75;;
16320;SDS011;8269;50.990;4.494;2022-10-23T10:01:23;7.25;;;2.97;;
16320;SDS011;8269;50.990;4.494;2022-10-23T10:03:51;6.72;;;2.90;;
16320;SDS011;8269;50.990;4.494;2022-10-23T10:06:27;6.15;;;3.40;;
16320;SDS011;8269;50.990;4.494;2022-10-23T10:08:55;5.60;;;3.20;;
16320;SDS011;8269;50.990;4.494;2022-10-23T10:11:28;8.73;;;3.58;;
16320;SDS011;8269;50.990;4.494;2022-10-23T10:14:03;8.68;;;3.15;;
16320;SDS011;8269;50.990;4.494;2022-10-23T10:16:50;5.40;;;2.88;;
16320;SDS011;8269;50.990;4.494;2022-10-23T10:19:38;8.00;;;2.80;;
16320;SDS011;8269;50.990;4.494;2022-10-23T10:28:00;7.85;;;3.30;;
16320;SDS011;8269;50.990;4.494;2022-10-23T10:31:28;8.10;;;3.13;;
16320;SDS011;8269;50.990;4.494;2022-10-23T10:48:06;8.38;;;3.25;;
16320;SDS011;8269;50.990;4.494;2022-10-23T10:50:58;10.35;;;3.30;;
16320;SDS011;8269;50.990;4.494;2022-10-23T10:56:19;9.23;;;3.28;;
16320;SDS011;8269;50.990;4.494;2022-10-23T10:58:58;9.20;;;3.15;;
16320;SDS011;8269;50.990;4.494;2022-10-23T11:01:35;7.93;;;3.17;;
16320;SDS011;8269;50.990;4.494;2022-10-23T11:06:53;8.20;;;3.13;;
16320;SDS011;8269;50.990;4.494;2022-10-23T11:09:26;9.50;;;3.50;;
16320;SDS011;8269;50.990;4.494;2022-10-23T11:11:53;8.45;;;3.10;;
16320;SDS011;8269;50.990;4.494;2022-10-23T11:14:26;5.25;;;2.90;;
16320;SDS011;8269;50.990;4.494;2022-10-23T11:16:56;8.73;;;3.45;;
16320;SDS011;8269;50.990;4.494;2022-10-23T11:19:25;8.27;;;2.90;;
16320;SDS011;8269;50.990;4.494;2022-10-23T11:22:27;8.57;;;3.45;;
16320;SDS011;8269;50.990;4.494;2022-10-23T11:27:51;7.13;;;3.08;;
16320;SDS011;8269;50.990;4.494;2022-10-23T11:30:46;10.98;;;3.30;;
16320;SDS011;8269;50.990;4.494;2022-10-23T11:36:40;7.50;;;3.38;;
16320;SDS011;8269;50.990;4.494;2022-10-23T11:39:25;7.63;;;3.42;;
16320;SDS011;8269;50.990;4.494;2022-10-23T11:41:56;7.22;;;3.20;;
16320;SDS011;8269;50.990;4.494;2022-10-23T11:44:45;6.53;;;3.53;;
16320;SDS011;8269;50.990;4.494;2022-10-23T11:47:30;6.93;;;3.13;;
16320;SDS011;8269;50.990;4.494;2022-10-23T11:50:31;8.63;;;3.30;;
16320;SDS011;8269;50.990;4.494;2022-10-23T11:58:46;8.45;;;3.63;;
16320;SDS011;8269;50.990;4.494;2022-10-23T12:01:19;6.78;;;3.30;;
16320;SDS011;8269;50.990;4.494;2022-10-23T12:06:38;7.07;;;3.40;;
16320;SDS011;8269;50.990;4.494;2022-10-23T12:14:28;9.57;;;3.63;;
16320;SDS011;8269;50.990;4.494;2022-10-23T12:16:59;6.05;;;2.92;;
16320;SDS011;8269;50.990;4.494;2022-10-23T12:19:29;6.72;;;2.75;;
16320;SDS011;8269;50.990;4.494;2022-10-23T12:22:12;5.18;;;3.00;;
16320;SDS011;8269;50.990;4.494;2022-10-23T12:24:41;4.35;;;2.85;;
16320;SDS011;8269;50.990;4.494;2022-10-23T12:27:30;6.78;;;3.00;;
16320;SDS011;8269;50.990;4.494;2022-10-23T12:30:14;8.88;;;3.08;;
16320;SDS011;8269;50.990;4.494;2022-10-23T12:33:11;7.10;;;3.10;;
16320;SDS011;8269;50.990;4.494;2022-10-23T12:35:49;7.20;;;3.40;;
16320;SDS011;8269;50.990;4.494;2022-10-23T12:38:32;6.50;;;2.95;;
16320;SDS011;8269;50.990;4.494;2022-10-23T12:41:10;6.10;;;2.95;;
16320;SDS011;8269;50.990;4.494;2022-10-23T12:43:39;6.25;;;3.20;;
16320;SDS011;8269;50.990;4.494;2022-10-23T12:46:21;5.85;;;3.08;;
16320;SDS011;8269;50.990;4.494;2022-10-23T12:48:51;6.45;;;3.13;;
16320;SDS011;8269;50.990;4.494;2022-10-23T12:51:25;8.25;;;3.55;;
16320;SDS011;8269;50.990;4.494;2022-10-23T12:53:52;10.43;;;3.50;;
16320;SDS011;8269;50.990;4.494;2022-10-23T12:56:18;8.18;;;3.92;;
16320;SDS011;8269;50.990;4.494;2022-10-23T12:58:46;8.00;;;3.47;;
16320;SDS011;8269;50.990;4.494;2022-10-23T13:01:22;5.68;;;3.33;;
16320;SDS011;8269;50.990;4.494;2022-10-23T13:03:56;7.05;;;2.97;;
16320;SDS011;8269;50.990;4.494;2022-10-23T13:06:37;8.48;;;3.15;;
16320;SDS011;8269;50.990;4.494;2022-10-23T13:09:04;5.28;;;3.10;;
16320;SDS011;8269;50.990;4.494;2022-10-23T13:11:37;6.75;;;3.20;;
16320;SDS011;8269;50.990;4.494;2022-10-23T13:14:09;6.72;;;3.10;;
16320;SDS011;8269;50.990;4.494;2022-10-23T13:16:35;8.68;;;3.20;;
16320;SDS011;8269;50.990;4.494;2022-10-23T13:19:01;7.50;;;3.10;;
16320;SDS011;8269;50.990;4.494;2022-10-23T13:21:27;9.52;;;3.28;;
16320;SDS011;8269;50.990;4.494;2022-10-23T13:23:53;8.20;;;2.60;;
16320;SDS011;8269;50.990;4.494;2022-10-23T13:29:16;6.32;;;2.60;;
16320;SDS011;8269;50.990;4.494;2022-10-23T13:31:50;6.97;;;3.10;;
16320;SDS011;8269;50.990;4.494;2022-10-23T13:34:18;5.78;;;2.92;;
16320;SDS011;8269;50.990;4.494;2022-10-23T13:39:26;9.57;;;3.00;;
16320;SDS011;8269;50.990;4.494;2022-10-23T13:41:54;5.90;;;2.63;;
16320;SDS011;8269;50.990;4.494;2022-10-23T13:44:21;5.78;;;3.05;;
16320;SDS011;8269;50.990;4.494;2022-10-23T13:46:48;6.85;;;3.30;;
16320;SDS011;8269;50.990;4.494;2022-10-23T13:49:15;6.35;;;2.92;;
16320;SDS011;8269;50.990;4.494;2022-10-23T13:54:13;8.02;;;3.40;;
16320;SDS011;8269;50.990;4.494;2022-10-23T13:56:40;9.63;;;3.38;;
16320;SDS011;8269;50.990;4.494;2022-10-23T13:59:07;8.77;;;3.15;;
16320;SDS011;8269;50.990;4.494;2022-10-23T14:01:34;9.15;;;3.13;;
16320;SDS011;8269;50.990;4.494;2022-10-23T14:04:00;8.55;;;3.30;;
16320;SDS011;8269;50.990;4.494;2022-10-23T14:06:28;6.53;;;3.50;;
16320;SDS011;8269;50.990;4.494;2022-10-23T14:08:54;5.85;;;3.30;;
16320;SDS011;8269;50.990;4.494;2022-10-23T14:11:19;6.72;;;3.13;;
16320;SDS011;8269;50.990;4.494;2022-10-23T14:13:46;8.10;;;3.65;;
16320;SDS011;8269;50.990;4.494;2022-10-23T14:16:13;6.45;;;3.20;;
16320;SDS011;8269;50.990;4.494;2022-10-23T14:18:40;9.55;;;3.83;;
16320;SDS011;8269;50.990;4.494;2022-10-23T14:21:07;6.43;;;3.10;;
16320;SDS011;8269;50.990;4.494;2022-10-23T14:23:35;8.55;;;3.40;;
16320;SDS011;8269;50.990;4.494;2022-10-23T14:26:04;6.78;;;3.33;;
16320;SDS011;8269;50.990;4.494;2022-10-23T14:28:35;7.60;;;2.90;;
16320;SDS011;8269;50.990;4.494;2022-10-23T14:31:08;8.40;;;3.22;;
16320;SDS011;8269;50.990;4.494;2022-10-23T14:33:35;7.22;;;3.30;;
16320;SDS011;8269;50.990;4.494;2022-10-23T14:36:01;6.65;;;3.28;;
16320;SDS011;8269;50.990;4.494;2022-10-23T14:38:27;6.68;;;3.05;;
16320;SDS011;8269;50.990;4.494;2022-10-23T14:40:52;7.35;;;3.10;;
16320;SDS011;8269;50.990;4.494;2022-10-23T14:43:18;9.43;;;3.33;;
16320;SDS011;8269;50.990;4.494;2022-10-23T14:45:44;12.82;;;4.00;;
16320;SDS011;8269;50.990;4.494;2022-10-23T14:48:09;8.55;;;3.33;;
16320;SDS011;8269;50.990;4.494;2022-10-23T14:50:36;6.43;;;3.30;;
16320;SDS011;8269;50.990;4.494;2022-10-23T14:53:06;6.43;;;3.47;;
16320;SDS011;8269;50.990;4.494;2022-10-23T14:55:31;8.98;;;3.08;;
16320;SDS011;8269;50.990;4.494;2022-10-23T14:57:57;8.23;;;3.90;;
16320;SDS011;8269;50.990;4.494;2022-10-23T15:00:22;6.35;;;3.30;;
16320;SDS011;8269;50.990;4.494;2022-10-23T15:02:48;8.50;;;3.35;;
16320;SDS011;8269;50.990;4.494;2022-10-23T15:05:14;11.18;;;3.33;;
16320;SDS011;8269;50.990;4.494;2022-10-23T15:07:40;7.38;;;3.30;;
16320;SDS011;8269;50.990;4.494;2022-10-23T15:10:06;6.13;;;3.38;;
16320;SDS011;8269;50.990;4.494;2022-10-23T15:12:35;8.95;;;3.35;;
16320;SDS011;8269;50.990;4.494;2022-10-23T15:15:05;8.75;;;3.20;;
16320;SDS011;8269;50.990;4.494;2022-10-23T15:17:32;8.07;;;3.78;;
16320;SDS011;8269;50.990;4.494;2022-10-23T15:19:58;9.63;;;3.63;;
16320;SDS011;8269;50.990;4.494;2022-10-23T15:22:24;11.00;;;3.95;;
16320;SDS011;8269;50.990;4.494;2022-10-23T15:24:50;10.43;;;3.78;;
16320;SDS011;8269;50.990;4.494;2022-10-23T15:27:16;10.65;;;3.67;;
16320;SDS011;8269;50.990;4.494;2022-10-23T15:29:43;7.57;;;3.35;;
16320;SDS011;8269;50.990;4.494;2022-10-23T15:32:09;10.05;;;3.75;;
16320;SDS011;8269;50.990;4.494;2022-10-23T15:34:35;11.48;;;3.92;;
16320;SDS011;8269;50.990;4.494;2022-10-23T15:37:01;8.65;;;3.67;;
16320;SDS011;8269;50.990;4.494;2022-10-23T15:39:28;9.00;;;3.70;;
16320;SDS011;8269;50.990;4.494;2022-10-23T15:41:59;7.95;;;3.72;;
16320;SDS011;8269;50.990;4.494;2022-10-23T15:44:27;10.02;;;4.20;;
16320;SDS011;8269;50.990;4.494;2022-10-23T15:46:54;6.80;;;3.70;;
16320;SDS011;8269;50.990;4.494;2022-10-23T15:49:21;8.43;;;3.53;;
16320;SDS011;8269;50.990;4.494;2022-10-23T15:51:48;8.90;;;4.00;;
16320;SDS011;8269;50.990;4.494;2022-10-23T15:54:15;9.70;;;4.25;;
16320;SDS011;8269;50.990;4.494;2022-10-23T15:56:47;7.35;;;3.53;;
16320;SDS011;8269;50.990;4.494;2022-10-23T15:59:15;11.07;;;3.92;;
16320;SDS011;8269;50.990;4.494;2022-10-23T16:01:42;8.80;;;3.65;;
16320;SDS011;8269;50.990;4.494;2022-10-23T16:04:07;10.73;;;4.05;;
16320;SDS011;8269;50.990;4.494;2022-10-23T16:06:33;9.73;;;3.83;;
16320;SDS011;8269;50.990;4.494;2022-10-23T16:08:59;10.05;;;4.28;;
16320;SDS011;8269;50.990;4.494;2022-10-23T16:11:26;9.38;;;4.00;;
16320;SDS011;8269;50.990;4.494;2022-10-23T16:13:54;11.38;;;4.28;;
16320;SDS011;8269;50.990;4.494;2022-10-23T16:16:20;8.07;;;4.28;;
16320;SDS011;8269;50.990;4.494;2022-10-23T16:18:46;6.20;;;3.78;;
16320;SDS011;8269;50.990;4.494;2022-10-23T16:21:31;8.73;;;4.20;;
16320;SDS011;8269;50.990;4.494;2022-10-23T16:23:59;8.50;;;3.90;;
16320;SDS011;8269;50.990;4.494;2022-10-23T16:26:26;7.15;;;3.50;;
16320;SDS011;8269;50.990;4.494;2022-10-23T16:28:54;6.82;;;3.42;;
16320;SDS011;8269;50.990;4.494;2022-10-23T16:31:22;8.10;;;3.58;;
16320;SDS011;8269;50.990;4.494;2022-10-23T16:33:48;8.75;;;4.00;;
16320;SDS011;8269;50.990;4.494;2022-10-23T16:36:15;9.00;;;3.80;;
16320;SDS011;8269;50.990;4.494;2022-10-23T16:38:41;7.53;;;3.85;;
16320;SDS011;8269;50.990;4.494;2022-10-23T16:41:07;10.35;;;4.72;;
16320;SDS011;8269;50.990;4.494;2022-10-23T16:43:32;8.75;;;4.55;;
16320;SDS011;8269;50.990;4.494;2022-10-23T16:45:59;9.25;;;4.32;;
16320;SDS011;8269;50.990;4.494;2022-10-23T16:48:26;13.10;;;4.70;;
16320;SDS011;8269;50.990;4.494;2022-10-23T16:50:52;7.47;;;4.00;;